Time;durP1;ratioP1;P1;durP2;ratioP2;P2;SDS_P1;SDS_P2;PMS_P1;PMS_P2;Temp;Humidity;BMP_temperature;BMP_pressure;BME280_temperature;BME280_humidity;BME280_pressure;Samples;Min_cycle;Max_cycle;Signal;HPM_P1;HPM_P2
2021/08/04 00:00:02;;;;;;;;;;;15.70;99.90;;;;;;1776594;80;20233;-76
2021/08/04 00:02:28;;;;;;;;;;;15.70;99.90;;;;;;1767875;79;20193;-76
2021/08/04 00:04:55;;;;;;;;;;;15.70;99.90;;;;;;1775791;79;20301;-75
2021/08/04 00:07:22;;;;;;;;;;;15.80;99.90;;;;;;1760632;81;20424;-75
2021/08/04 00:09:49;;;;;;;;;;;15.80;99.90;;;;;;1767029;81;20194;-76
2021/08/04 00:12:16;;;;;;;;;;;15.80;99.90;;;;;;1770266;81;20503;-75
2021/08/04 00:14:43;;;;;;;;;;;15.80;99.90;;;;;;1762445;79;20221;-75
2021/08/04 00:17:10;;;;;;;;;;;15.70;99.90;;;;;;1745349;81;20188;-75
2021/08/04 00:19:37;;;;;;;;;;;15.70;99.90;;;;;;1757997;81;20212;-76
2021/08/04 00:22:04;;;;;;;;;;;15.80;99.90;;;;;;1768079;81;20183;-76
2021/08/04 00:24:31;;;;;;;;;;;15.80;99.90;;;;;;1761441;80;20178;-75
2021/08/04 00:26:58;;;;;;;;;;;15.80;99.90;;;;;;1769205;79;20174;-75
2021/08/04 00:29:24;;;;;;;;;;;15.80;99.90;;;;;;1755614;82;20225;-75
2021/08/04 00:31:51;;;;;;;;;;;15.70;99.90;;;;;;1749858;81;20223;-75
2021/08/04 00:34:18;;;;;;;;;;;15.80;99.90;;;;;;1753583;80;20217;-75
2021/08/04 00:36:45;;;;;;;;;;;15.70;99.90;;;;;;1770569;79;20189;-75
2021/08/04 00:39:12;;;;;;;;;;;15.70;99.90;;;;;;1758182;80;20283;-75
2021/08/04 00:41:39;;;;;;;;;;;15.60;99.90;;;;;;1770523;81;20201;-75
2021/08/04 00:44:06;;;;;;;;;;;15.60;99.90;;;;;;1762538;80;20209;-75
2021/08/04 00:46:34;;;;;;;;;;;15.60;99.90;;;;;;1770613;80;20182;-74
2021/08/04 00:49:01;;;;;;;;;;;15.70;99.90;;;;;;1769619;79;20193;-74
2021/08/04 00:51:28;;;;;;;;;;;15.80;99.90;;;;;;1770341;79;20190;-74
2021/08/04 00:53:56;;;;;;;;;;;15.80;99.90;;;;;;1770065;79;20209;-74
2021/08/04 00:56:23;;;;;;;;;;;15.60;99.90;;;;;;1766929;80;20174;-75
2021/08/04 00:58:50;;;;;;;;;;;15.50;99.90;;;;;;1775599;81;20187;-74
2021/08/04 01:01:21;;;;;;;;;;;15.50;99.90;;;;;;1746322;80;20244;-75
2021/08/04 01:04:05;;;;;;;;;;;15.50;99.90;;;;;;1770362;80;20224;-74
2021/08/04 01:06:36;;;;;;;;;;;15.50;99.90;;;;;;1690792;84;20225;-74
2021/08/04 01:09:04;;;;;;;;;;;15.50;99.90;;;;;;1746134;80;20174;-75
2021/08/04 01:11:32;;;;;;;;;;;15.50;99.90;;;;;;1770763;80;20190;-74
2021/08/04 01:14:00;;;;;;;;;;;15.50;99.90;;;;;;1753960;80;20187;-75
2021/08/04 01:16:29;;;;;;;;;;;15.40;99.90;;;;;;1744365;81;20203;-76
2021/08/04 01:18:58;;;;;;;;;;;15.40;99.90;;;;;;1755637;81;20341;-73
2021/08/04 01:21:35;;;;;;;;;;;15.30;99.90;;;;;;1765650;79;20187;-75
2021/08/04 01:24:04;;;;;;;;;;;15.40;99.90;;;;;;1760115;81;20167;-74
2021/08/04 01:26:32;;;;;;;;;;;15.40;99.90;;;;;;1770847;80;20177;-75
2021/08/04 01:29:00;;;;;;;;;;;15.40;99.90;;;;;;1756501;81;20174;-74
2021/08/04 01:31:27;;;;;;;;;;;15.40;99.90;;;;;;1775687;80;20202;-74
2021/08/04 01:33:55;;;;;;;;;;;15.40;99.90;;;;;;1752252;80;20193;-75
2021/08/04 01:36:22;;;;;;;;;;;15.40;99.90;;;;;;1748064;82;20193;-75
2021/08/04 01:38:49;;;;;;;;;;;15.40;99.90;;;;;;1775573;81;20363;-75
2021/08/04 01:41:17;;;;;;;;;;;15.30;99.90;;;;;;1775990;79;20154;-75
2021/08/04 01:43:45;;;;;;;;;;;15.30;99.90;;;;;;1734341;82;20212;-74
2021/08/04 01:46:12;;;;;;;;;;;15.20;99.90;;;;;;1784267;79;20166;-75
2021/08/04 01:48:40;;;;;;;;;;;15.20;99.90;;;;;;1759937;81;20186;-75
2021/08/04 01:51:08;;;;;;;;;;;15.10;99.90;;;;;;1767081;81;20283;-75
2021/08/04 01:53:36;;;;;;;;;;;15.10;99.90;;;;;;1759859;80;20804;-75
2021/08/04 01:56:03;;;;;;;;;;;15.10;99.90;;;;;;1773616;79;20202;-75
2021/08/04 01:58:30;;;;;;;;;;;15.10;99.90;;;;;;1767245;81;20189;-75
2021/08/04 02:00:57;;;;;;;;;;;15.10;99.90;;;;;;1751090;80;20193;-74
2021/08/04 02:03:24;;;;;;;;;;;15.10;99.90;;;;;;1765617;80;20198;-74
2021/08/04 02:05:52;;;;;;;;;;;15.10;99.90;;;;;;1775461;79;20197;-74
2021/08/04 02:08:23;;;;;;;;;;;15.10;99.90;;;;;;1770504;80;20170;-74
2021/08/04 02:11:09;;;;;;;;;;;15.10;99.90;;;;;;1770756;81;20127;-75
2021/08/04 02:13:38;;;;;;;;;;;15.10;99.90;;;;;;1770846;80;20118;-74
2021/08/04 02:16:12;;;;;;;;;;;15.10;99.90;;;;;;1760315;80;20164;-75
2021/08/04 02:18:40;;;;;;;;;;;15.00;99.90;;;;;;1776159;80;20147;-75
2021/08/04 02:21:07;;;;;;;;;;;15.00;99.90;;;;;;1727242;81;20164;-75
2021/08/04 02:23:35;;;;;;;;;;;15.00;99.90;;;;;;1768221;79;20132;-75
2021/08/04 02:26:09;;;;;;;;;;;15.00;99.90;;;;;;1775081;79;20466;-73
2021/08/04 02:28:38;;;;;;;;;;;15.10;99.90;;;;;;1776076;81;20147;-74
2021/08/04 02:31:06;;;;;;;;;;;15.10;99.90;;;;;;1769549;79;20130;-74
2021/08/04 02:33:33;;;;;;;;;;;15.10;99.90;;;;;;1771258;81;20123;-74
2021/08/04 02:36:00;;;;;;;;;;;15.10;99.90;;;;;;1770459;80;20181;-74
2021/08/04 02:38:29;;;;;;;;;;;15.10;99.90;;;;;;1770477;81;20466;-74
2021/08/04 02:40:55;;;;;;;;;;;15.00;99.90;;;;;;1769936;79;20170;-74
2021/08/04 02:43:23;;;;;;;;;;;15.00;99.90;;;;;;1770087;80;20189;-74
2021/08/04 02:45:50;;;;;;;;;;;15.00;99.90;;;;;;1767533;79;20352;-74
2021/08/04 02:48:17;;;;;;;;;;;15.00;99.90;;;;;;1775815;81;20381;-73
2021/08/04 02:50:46;;;;;;;;;;;15.00;99.90;;;;;;1775534;81;20202;-74
2021/08/04 02:53:16;;;;;;;;;;;15.00;99.90;;;;;;1775950;79;20202;-74
2021/08/04 02:55:43;;;;;;;;;;;15.00;99.90;;;;;;1770183;79;20126;-74
2021/08/04 02:58:15;;;;;;;;;;;14.90;99.90;;;;;;1769276;80;20206;-74
2021/08/04 03:00:39;;;;;;;;;;;15.00;99.90;;;;;;1768746;79;20503;-73
2021/08/04 03:03:06;;;;;;;;;;;14.90;99.90;;;;;;1776058;79;20511;-75
2021/08/04 03:05:33;;;;;;;;;;;14.90;99.90;;;;;;1770498;80;20127;-75
2021/08/04 03:08:00;;;;;;;;;;;14.90;99.90;;;;;;1770681;81;20175;-75
2021/08/04 03:10:27;;;;;;;;;;;15.00;99.90;;;;;;1766860;80;20188;-75
2021/08/04 03:12:54;;;;;;;;;;;14.90;99.90;;;;;;1768392;79;20198;-74
2021/08/04 03:15:21;;;;;;;;;;;15.00;99.90;;;;;;1773668;79;20448;-73
2021/08/04 03:17:47;;;;;;;;;;;15.00;99.90;;;;;;1778045;79;20122;-74
2021/08/04 03:20:15;;;;;;;;;;;14.90;99.90;;;;;;1776768;79;20158;-73
2021/08/04 03:22:49;;;;;;;;;;;14.90;99.90;;;;;;1772840;81;20177;-73
2021/08/04 03:25:18;;;;;;;;;;;14.80;99.90;;;;;;1765659;80;20141;-73
2021/08/04 03:27:45;;;;;;;;;;;14.80;99.90;;;;;;1758350;82;20129;-73
2021/08/04 03:30:12;;;;;;;;;;;14.90;99.90;;;;;;1767529;79;20178;-73
2021/08/04 03:32:39;;;;;;;;;;;15.00;99.90;;;;;;1774069;80;20214;-74
2021/08/04 03:35:06;;;;;;;;;;;15.00;99.90;;;;;;1773554;80;20119;-74
2021/08/04 03:37:33;;;;;;;;;;;15.00;99.90;;;;;;1778829;81;20214;-74
2021/08/04 03:40:00;;;;;;;;;;;15.00;99.90;;;;;;1773262;80;20210;-74
2021/08/04 03:42:27;;;;;;;;;;;15.10;99.90;;;;;;1773120;80;20403;-73
2021/08/04 03:44:53;;;;;;;;;;;14.90;99.90;;;;;;1765150;81;20233;-73
2021/08/04 03:47:20;;;;;;;;;;;14.90;99.90;;;;;;1770141;80;20228;-74
2021/08/04 03:49:47;;;;;;;;;;;14.80;99.90;;;;;;1775694;81;20546;-74
2021/08/04 03:52:14;;;;;;;;;;;14.80;99.90;;;;;;1769859;79;20186;-75
2021/08/04 03:54:41;;;;;;;;;;;14.70;99.90;;;;;;1753914;80;20494;-76
2021/08/04 03:57:07;;;;;;;;;;;14.70;99.90;;;;;;1770297;79;20181;-74
2021/08/04 03:59:34;;;;;;;;;;;14.60;99.90;;;;;;1745344;81;20186;-74
2021/08/04 04:02:01;;;;;;;;;;;14.60;99.90;;;;;;1774467;80;20189;-75
2021/08/04 04:04:28;;;;;;;;;;;14.60;99.90;;;;;;1752156;80;20213;-75
2021/08/04 04:06:55;;;;;;;;;;;14.60;99.90;;;;;;1775493;79;20538;-74
2021/08/04 04:09:21;;;;;;;;;;;14.60;99.90;;;;;;1770449;80;20178;-74
2021/08/04 04:11:48;;;;;;;;;;;14.60;99.90;;;;;;1770062;80;21177;-73
2021/08/04 04:14:15;;;;;;;;;;;14.50;99.90;;;;;;1770318;80;20225;-74
2021/08/04 04:16:42;;;;;;;;;;;14.50;99.90;;;;;;1754805;81;20497;-73
2021/08/04 04:19:09;;;;;;;;;;;14.50;99.90;;;;;;1745876;79;20226;-74
2021/08/04 04:21:35;;;;;;;;;;;14.60;99.90;;;;;;1764063;81;20222;-75
2021/08/04 04:24:02;;;;;;;;;;;14.50;99.90;;;;;;1744866;80;20195;-75
2021/08/04 04:26:30;;;;;;;;;;;14.50;99.90;;;;;;1768864;81;20218;-75
2021/08/04 04:28:57;;;;;;;;;;;14.50;99.90;;;;;;1770600;79;20209;-75
2021/08/04 04:31:24;;;;;;;;;;;14.50;99.90;;;;;;1770007;79;20464;-76
2021/08/04 04:33:51;;;;;;;;;;;14.50;99.90;;;;;;1770894;81;20169;-75
2021/08/04 04:36:17;;;;;;;;;;;14.50;99.90;;;;;;1758185;79;20415;-75
2021/08/04 04:38:44;;;;;;;;;;;14.40;99.90;;;;;;1756032;81;20122;-76
2021/08/04 04:41:11;;;;;;;;;;;14.50;99.90;;;;;;1765477;79;20184;-75
2021/08/04 04:43:41;;;;;;;;;;;14.50;99.90;;;;;;1768515;80;20475;-76
2021/08/04 04:46:06;;;;;;;;;;;14.50;99.90;;;;;;1775190;79;20151;-75
2021/08/04 04:48:33;;;;;;;;;;;14.50;99.90;;;;;;1770782;80;20228;-75
2021/08/04 04:51:00;;;;;;;;;;;14.50;99.90;;;;;;1746201;81;20183;-75
2021/08/04 04:53:27;;;;;;;;;;;14.50;99.90;;;;;;1774173;81;20162;-75
2021/08/04 04:55:54;;;;;;;;;;;14.50;99.90;;;;;;1738738;81;20196;-75
2021/08/04 04:58:21;;;;;;;;;;;14.50;99.90;;;;;;1753593;80;20166;-76
2021/08/04 05:00:48;;;;;;;;;;;14.40;99.90;;;;;;1764707;80;20472;-77
2021/08/04 05:03:14;;;;;;;;;;;14.50;99.90;;;;;;1770609;79;20189;-78
2021/08/04 05:05:41;;;;;;;;;;;14.50;99.90;;;;;;1771146;80;20229;-76
2021/08/04 05:08:08;;;;;;;;;;;14.60;99.90;;;;;;1770887;79;20181;-74
2021/08/04 05:10:35;;;;;;;;;;;14.60;99.90;;;;;;1773661;81;20224;-74
2021/08/04 05:13:02;;;;;;;;;;;14.50;99.90;;;;;;1762002;80;20251;-75
2021/08/04 05:15:28;;;;;;;;;;;14.50;99.90;;;;;;1762894;80;20442;-74
2021/08/04 05:17:55;;;;;;;;;;;14.50;99.90;;;;;;1741200;82;20792;-73
2021/08/04 05:20:22;;;;;;;;;;;14.50;99.90;;;;;;1761835;79;20178;-73
2021/08/04 05:22:49;;;;;;;;;;;14.40;99.90;;;;;;1761807;81;20185;-74
2021/08/04 05:25:16;;;;;;;;;;;14.50;99.90;;;;;;1770072;81;20225;-73
2021/08/04 05:27:42;;;;;;;;;;;14.40;99.90;;;;;;1770580;80;20193;-73
2021/08/04 05:30:12;;;;;;;;;;;14.40;99.90;;;;;;1765516;80;20199;-74
2021/08/04 05:32:38;;;;;;;;;;;14.40;99.90;;;;;;1761561;79;20449;-74
2021/08/04 05:35:06;;;;;;;;;;;14.40;99.90;;;;;;1765115;79;20136;-76
2021/08/04 05:37:32;;;;;;;;;;;14.40;99.90;;;;;;1754828;80;20165;-75
2021/08/04 05:39:59;;;;;;;;;;;14.40;99.90;;;;;;1776312;81;20452;-75
2021/08/04 05:42:26;;;;;;;;;;;14.50;99.90;;;;;;1772587;80;20159;-76
2021/08/04 05:44:53;;;;;;;;;;;14.60;99.90;;;;;;1768245;79;20743;-73
2021/08/04 05:47:19;;;;;;;;;;;14.60;99.90;;;;;;1769821;80;20178;-74
2021/08/04 05:49:48;;;;;;;;;;;14.70;99.90;;;;;;1771281;79;20118;-75
2021/08/04 05:52:15;;;;;;;;;;;14.70;99.90;;;;;;1770040;81;20185;-75
2021/08/04 05:54:42;;;;;;;;;;;14.70;99.90;;;;;;1770341;80;20220;-74
2021/08/04 05:57:09;;;;;;;;;;;14.60;99.90;;;;;;1775522;80;20245;-75
2021/08/04 05:59:35;;;;;;;;;;;14.70;99.90;;;;;;1764085;80;20135;-75
2021/08/04 06:02:02;;;;;;;;;;;14.70;99.90;;;;;;1752269;80;20189;-76
2021/08/04 06:04:29;;;;;;;;;;;14.70;99.90;;;;;;1770894;80;20214;-76
2021/08/04 06:06:56;;;;;;;;;;;14.60;99.90;;;;;;1770214;81;20174;-76
2021/08/04 06:09:22;;;;;;;;;;;14.60;99.90;;;;;;1770986;80;20190;-75
2021/08/04 06:11:49;;;;;;;;;;;14.70;99.90;;;;;;1766676;79;20206;-76
2021/08/04 06:14:16;;;;;;;;;;;14.70;99.90;;;;;;1768429;80;20147;-75
2021/08/04 06:16:43;;;;;;;;;;;14.80;99.90;;;;;;1771945;80;20163;-76
2021/08/04 06:19:10;;;;;;;;;;;14.80;99.90;;;;;;1762989;80;20189;-75
2021/08/04 06:21:36;;;;;;;;;;;14.80;99.90;;;;;;1764829;81;20529;-76
2021/08/04 06:24:03;;;;;;;;;;;14.80;99.90;;;;;;1760480;79;20182;-75
2021/08/04 06:26:30;;;;;;;;;;;14.80;99.90;;;;;;1771100;80;20130;-76
2021/08/04 06:28:57;;;;;;;;;;;14.90;99.90;;;;;;1763240;79;20182;-79
2021/08/04 06:31:24;;;;;;;;;;;14.80;99.90;;;;;;1770245;81;20131;-78
2021/08/04 06:33:51;;;;;;;;;;;14.90;99.90;;;;;;1762338;80;20177;-79
2021/08/04 06:36:17;;;;;;;;;;;14.90;99.90;;;;;;1757908;80;20189;-79
2021/08/04 06:38:44;;;;;;;;;;;14.90;99.90;;;;;;1771759;81;20444;-78
2021/08/04 06:41:11;;;;;;;;;;;14.80;99.90;;;;;;1763357;79;20316;-77
2021/08/04 06:43:57;;;;;;;;;;;14.90;99.90;;;;;;1768097;81;20193;-76
2021/08/04 06:46:24;;;;;;;;;;;14.90;99.90;;;;;;1860801;77;20409;-77
2021/08/04 06:48:52;;;;;;;;;;;15.00;99.90;;;;;;1859360;75;20313;-77
2021/08/04 06:51:18;;;;;;;;;;;15.00;99.90;;;;;;1861879;77;20147;-75
2021/08/04 06:53:49;;;;;;;;;;;14.90;99.90;;;;;;1859569;76;20206;-74
2021/08/04 06:56:14;;;;;;;;;;;14.90;99.90;;;;;;1859676;75;20178;-73
2021/08/04 06:58:40;;;;;;;;;;;14.90;99.90;;;;;;1861314;75;20244;-73
2021/08/04 07:01:07;;;;;;;;;;;15.00;99.90;;;;;;1857943;76;20514;-74
2021/08/04 07:03:35;;;;;;;;;;;15.00;99.90;;;;;;1859510;76;20310;-75
2021/08/04 07:06:02;;;;;;;;;;;15.00;99.90;;;;;;1860085;75;20918;-75
2021/08/04 07:08:29;;;;;;;;;;;15.00;99.90;;;;;;1860366;76;20346;-74
2021/08/04 07:10:56;;;;;;;;;;;14.90;99.90;;;;;;1861497;76;20217;-74
2021/08/04 07:13:23;;;;;;;;;;;15.00;99.90;;;;;;1860706;76;20139;-75
2021/08/04 07:15:50;;;;;;;;;;;15.00;99.90;;;;;;1859824;76;20112;-75
2021/08/04 07:18:17;;;;;;;;;;;15.00;99.90;;;;;;1860940;75;20218;-75
2021/08/04 07:20:44;;;;;;;;;;;15.00;99.90;;;;;;1860005;76;20175;-74
2021/08/04 07:23:11;;;;;;;;;;;15.00;99.90;;;;;;1858842;75;20215;-73
2021/08/04 07:25:38;;;;;;;;;;;15.00;99.90;;;;;;1858688;76;20174;-74
2021/08/04 07:28:05;;;;;;;;;;;15.00;99.90;;;;;;1860367;76;20209;-75
2021/08/04 07:30:32;;;;;;;;;;;14.90;99.90;;;;;;1857839;76;20195;-75
2021/08/04 07:32:59;;;;;;;;;;;15.00;99.90;;;;;;1858619;76;20237;-74
2021/08/04 07:35:26;;;;;;;;;;;15.00;99.90;;;;;;1860365;75;20487;-76
2021/08/04 07:37:53;;;;;;;;;;;15.20;99.90;;;;;;1858867;76;20179;-74
2021/08/04 07:40:20;;;;;;;;;;;15.10;99.90;;;;;;1859412;75;20260;-75
2021/08/04 07:42:48;;;;;;;;;;;15.00;99.90;;;;;;1858885;76;20261;-74
2021/08/04 07:45:15;;;;;;;;;;;15.10;99.90;;;;;;1858794;75;20210;-74
2021/08/04 07:47:42;;;;;;;;;;;15.10;99.90;;;;;;1858799;76;20180;-75
2021/08/04 07:50:09;;;;;;;;;;;15.10;99.90;;;;;;1856858;75;20184;-75
2021/08/04 07:52:36;;;;;;;;;;;15.10;99.90;;;;;;1859057;76;20232;-75
2021/08/04 07:55:06;;;;;;;;;;;15.20;99.90;;;;;;1859757;76;20233;-77
2021/08/04 07:57:31;;;;;;;;;;;15.10;99.90;;;;;;1858742;75;20190;-75
2021/08/04 07:59:58;;;;;;;;;;;15.10;99.90;;;;;;1855235;75;20159;-77
2021/08/04 08:02:25;;;;;;;;;;;15.10;99.90;;;;;;1856511;76;20433;-77
2021/08/04 08:04:52;;;;;;;;;;;15.10;99.90;;;;;;1858537;75;20152;-76
2021/08/04 08:07:19;;;;;;;;;;;15.10;99.90;;;;;;1858019;76;20501;-76
2021/08/04 08:09:45;;;;;;;;;;;15.10;99.90;;;;;;1858117;76;20128;-76
2021/08/04 08:12:13;;;;;;;;;;;15.10;99.90;;;;;;1858501;76;20492;-76
2021/08/04 08:14:40;;;;;;;;;;;15.20;99.90;;;;;;1863346;76;20397;-75
2021/08/04 08:17:06;;;;;;;;;;;15.20;99.90;;;;;;1859014;76;20215;-74
2021/08/04 08:19:33;;;;;;;;;;;15.30;99.90;;;;;;1859832;76;20451;-75
2021/08/04 08:22:00;;;;;;;;;;;15.30;99.90;;;;;;1858677;75;20218;-74
2021/08/04 08:24:27;;;;;;;;;;;15.40;99.90;;;;;;1857328;75;20223;-74
2021/08/04 08:26:54;;;;;;;;;;;15.40;99.90;;;;;;1859571;76;20244;-74
2021/08/04 08:29:21;;;;;;;;;;;15.40;99.90;;;;;;1859121;76;20175;-76
2021/08/04 08:31:48;;;;;;;;;;;15.40;99.90;;;;;;1858795;76;20128;-76
2021/08/04 08:34:15;;;;;;;;;;;15.40;99.90;;;;;;1859678;75;20218;-76
2021/08/04 08:36:42;;;;;;;;;;;15.40;99.90;;;;;;1859093;76;20429;-77
2021/08/04 08:39:10;;;;;;;;;;;15.50;99.90;;;;;;1860981;75;20767;-75
2021/08/04 08:41:37;;;;;;;;;;;15.60;99.90;;;;;;1862476;76;20376;-75
2021/08/04 08:44:04;;;;;;;;;;;15.60;99.90;;;;;;1862593;75;20505;-76
2021/08/04 08:46:32;;;;;;;;;;;15.60;99.90;;;;;;1857770;76;20572;-74
2021/08/04 08:49:00;;;;;;;;;;;15.60;99.90;;;;;;1860144;76;20586;-76
2021/08/04 08:51:27;;;;;;;;;;;15.70;99.90;;;;;;1859071;75;20960;-75
2021/08/04 08:53:53;;;;;;;;;;;15.80;99.90;;;;;;1858545;75;20232;-77
2021/08/04 08:56:20;;;;;;;;;;;15.80;99.90;;;;;;1858096;76;20120;-77
2021/08/04 08:58:48;;;;;;;;;;;15.90;99.90;;;;;;1859823;76;20230;-76
2021/08/04 09:01:16;;;;;;;;;;;15.90;99.90;;;;;;1859654;76;20171;-74
2021/08/04 09:03:42;;;;;;;;;;;15.90;99.90;;;;;;1858841;76;20242;-74
2021/08/04 09:06:10;;;;;;;;;;;15.90;99.90;;;;;;1858269;75;20186;-76
2021/08/04 09:08:37;;;;;;;;;;;15.90;99.90;;;;;;1860112;76;20170;-77
2021/08/04 09:11:20;;;;;;;;;;;15.90;99.90;;;;;;1857769;75;20185;-77
2021/08/04 09:13:47;;;;;;;;;;;15.90;99.90;;;;;;1858797;75;20171;-76
2021/08/04 09:16:16;;;;;;;;;;;15.80;99.90;;;;;;1859934;76;20403;-75
2021/08/04 09:18:51;;;;;;;;;;;15.70;99.90;;;;;;1858142;76;20256;-76
2021/08/04 09:21:18;;;;;;;;;;;15.70;99.90;;;;;;1858612;76;20484;-76
2021/08/04 09:23:46;;;;;;;;;;;15.70;99.90;;;;;;1857151;76;20195;-76
2021/08/04 09:26:14;;;;;;;;;;;15.80;99.90;;;;;;1859220;76;20201;-76
2021/08/04 09:28:54;;;;;;;;;;;15.80;99.90;;;;;;1857517;76;20278;-75
2021/08/04 09:31:21;;;;;;;;;;;15.80;99.90;;;;;;1859012;76;20215;-75
2021/08/04 09:33:48;;;;;;;;;;;15.90;99.90;;;;;;1857638;76;20189;-73
2021/08/04 09:36:28;;;;;;;;;;;15.90;99.90;;;;;;1859709;76;20206;-74
2021/08/04 09:39:05;;;;;;;;;;;16.00;99.90;;;;;;1858888;76;20416;-74
2021/08/04 09:41:32;;;;;;;;;;;16.00;99.90;;;;;;1857599;76;20179;-75
2021/08/04 09:44:05;;;;;;;;;;;16.00;99.90;;;;;;1858732;76;20215;-74
2021/08/04 09:46:33;;;;;;;;;;;16.10;99.90;;;;;;1858115;76;20175;-75
2021/08/04 09:49:16;;;;;;;;;;;16.20;99.90;;;;;;1858763;76;20541;-75
2021/08/04 09:51:43;;;;;;;;;;;16.10;99.90;;;;;;1855708;76;20235;-75
2021/08/04 09:54:11;;;;;;;;;;;16.20;99.90;;;;;;1856962;76;20260;-76
2021/08/04 09:56:52;;;;;;;;;;;16.20;99.90;;;;;;1857685;76;20179;-75
2021/08/04 09:59:25;;;;;;;;;;;16.30;99.90;;;;;;1858032;76;20548;-76
2021/08/04 10:01:48;;;;;;;;;;;16.40;99.90;;;;;;1857514;76;20279;-76
2021/08/04 10:04:15;;;;;;;;;;;16.50;99.90;;;;;;1859309;75;20182;-76
2021/08/04 10:06:43;;;;;;;;;;;16.60;99.90;;;;;;1881003;72;20935;-78
2021/08/04 10:09:11;;;;;;;;;;;16.60;99.90;;;;;;1909026;74;20166;-78
2021/08/04 10:11:40;;;;;;;;;;;16.70;99.90;;;;;;1907817;73;20188;-77
2021/08/04 10:14:07;;;;;;;;;;;16.70;99.90;;;;;;1907350;74;20236;-78
2021/08/04 10:16:36;;;;;;;;;;;16.70;99.90;;;;;;1908933;73;20165;-77
2021/08/04 10:19:04;;;;;;;;;;;16.70;99.90;;;;;;1902589;75;20253;-76
2021/08/04 10:21:32;;;;;;;;;;;16.70;99.90;;;;;;1900149;74;20474;-73
2021/08/04 10:24:00;;;;;;;;;;;16.70;99.90;;;;;;1893667;75;20250;-75
2021/08/04 10:26:27;;;;;;;;;;;16.80;99.90;;;;;;1905603;74;20229;-77
2021/08/04 10:28:58;;;;;;;;;;;16.80;99.90;;;;;;1893866;74;20169;-76
2021/08/04 10:31:25;;;;;;;;;;;16.80;99.90;;;;;;1902261;74;20470;-76
2021/08/04 10:33:53;;;;;;;;;;;16.80;99.90;;;;;;1903710;74;20884;-73
2021/08/04 10:36:20;;;;;;;;;;;16.80;99.90;;;;;;1905091;74;20239;-76
2021/08/04 10:38:51;;;;;;;;;;;16.80;99.90;;;;;;1904686;74;20229;-73
2021/08/04 10:41:22;;;;;;;;;;;16.90;99.90;;;;;;1900144;74;20158;-77
2021/08/04 10:43:50;;;;;;;;;;;16.90;99.90;;;;;;1902396;74;20174;-76
2021/08/04 10:46:30;;;;;;;;;;;17.00;99.90;;;;;;1901952;75;20177;-76
2021/08/04 10:49:05;;;;;;;;;;;17.10;99.90;;;;;;1903347;75;20216;-76
2021/08/04 10:51:32;;;;;;;;;;;17.10;99.90;;;;;;1901950;75;20205;-78
2021/08/04 10:54:04;;;;;;;;;;;17.20;99.90;;;;;;1893983;75;20175;-75
2021/08/04 10:56:35;;;;;;;;;;;17.30;99.90;;;;;;1896313;74;20410;-73
2021/08/04 10:59:13;;;;;;;;;;;17.30;99.90;;;;;;1900789;74;20488;-78
2021/08/04 11:01:50;;;;;;;;;;;17.40;99.90;;;;;;1902563;74;20212;-78
2021/08/04 11:04:27;;;;;;;;;;;17.40;99.90;;;;;;1903072;74;20181;-74
2021/08/04 11:07:17;;;;;;;;;;;17.50;99.90;;;;;;1896889;74;20216;-79
2021/08/04 11:09:41;;;;;;;;;;;17.50;99.90;;;;;;1898987;74;20547;-76
2021/08/04 11:12:12;;;;;;;;;;;17.70;99.90;;;;;;1900546;74;20466;-76
2021/08/04 11:14:50;;;;;;;;;;;17.70;99.90;;;;;;1896586;74;20225;-76
2021/08/04 11:17:18;;;;;;;;;;;17.80;99.90;;;;;;1904614;74;20201;-79
2021/08/04 11:22:30;;;;;;;;;;;18.10;99.90;;;;;;1902847;74;20625;-77
2021/08/04 11:24:58;;;;;;;;;;;18.20;99.90;;;;;;1893010;74;20161;-77
2021/08/04 11:27:26;;;;;;;;;;;18.30;99.90;;;;;;1905557;74;20122;-80
2021/08/04 11:29:54;;;;;;;;;;;18.30;99.90;;;;;;1903549;74;20151;-78
2021/08/04 11:32:21;;;;;;;;;;;18.40;99.90;;;;;;1898732;74;20161;-81
2021/08/04 11:34:49;;;;;;;;;;;18.70;99.90;;;;;;1885767;74;20115;-79
2021/08/04 11:37:15;;;;;;;;;;;18.80;99.90;;;;;;1906618;74;20149;-81
2021/08/04 11:39:55;;;;;;;;;;;19.00;99.90;;;;;;1907509;74;20517;-77
2021/08/04 11:42:23;;;;;;;;;;;19.10;99.90;;;;;;1889978;75;20110;-78
2021/08/04 11:44:50;;;;;;;;;;;19.10;99.90;;;;;;1884681;74;20163;-78
2021/08/04 11:47:17;;;;;;;;;;;19.20;99.90;;;;;;1905555;74;20237;-77
2021/08/04 11:49:49;;;;;;;;;;;19.30;99.90;;;;;;1906738;74;20185;-79
2021/08/04 11:52:23;;;;;;;;;;;19.30;99.90;;;;;;1896392;74;20267;-78
2021/08/04 11:55:05;;;;;;;;;;;19.40;99.90;;;;;;1907136;74;20231;-76
2021/08/04 11:57:33;;;;;;;;;;;19.50;99.90;;;;;;1902946;74;20220;-77
2021/08/04 12:00:01;;;;;;;;;;;19.60;99.90;;;;;;1882016;75;20743;-76
2021/08/04 12:02:31;;;;;;;;;;;19.60;99.90;;;;;;1906490;74;20263;-76
2021/08/04 12:04:59;;;;;;;;;;;19.70;99.90;;;;;;1899831;75;20206;-77
2021/08/04 12:07:27;;;;;;;;;;;19.70;99.90;;;;;;1891789;74;20179;-76
2021/08/04 12:09:54;;;;;;;;;;;19.80;99.90;;;;;;1885712;74;20839;-76
2021/08/04 12:12:27;;;;;;;;;;;19.80;99.90;;;;;;1892033;74;20626;-77
2021/08/04 12:14:55;;;;;;;;;;;19.80;99.90;;;;;;1902980;74;20601;-75
2021/08/04 12:17:23;;;;;;;;;;;19.90;99.90;;;;;;1902936;74;20173;-76
2021/08/04 12:19:52;;;;;;;;;;;19.90;99.90;;;;;;1898990;74;20208;-77
2021/08/04 12:22:21;;;;;;;;;;;19.90;99.90;;;;;;1904991;74;20161;-77
2021/08/04 12:24:49;;;;;;;;;;;20.00;99.90;;;;;;1900995;74;20153;-77
2021/08/04 12:27:17;;;;;;;;;;;20.00;99.90;;;;;;1902181;74;20225;-77
2021/08/04 12:29:44;;;;;;;;;;;20.10;99.90;;;;;;1898285;74;20731;-76
2021/08/04 12:32:27;;;;;;;;;;;20.30;99.90;;;;;;1900458;74;20181;-77
2021/08/04 12:34:52;;;;;;;;;;;20.30;99.90;;;;;;1902733;74;20446;-77
2021/08/04 12:37:20;;;;;;;;;;;20.40;99.90;;;;;;1910085;75;20177;-77
2021/08/04 12:39:47;;;;;;;;;;;20.50;99.90;;;;;;1906154;74;20165;-77
2021/08/04 12:42:14;;;;;;;;;;;20.40;99.90;;;;;;1906320;74;20114;-74
2021/08/04 12:44:41;;;;;;;;;;;20.40;99.90;;;;;;1889589;74;20852;-74
2021/08/04 12:47:09;;;;;;;;;;;20.40;99.90;;;;;;1903034;74;20162;-74
2021/08/04 12:49:36;;;;;;;;;;;20.30;99.90;;;;;;1904764;74;20113;-74
2021/08/04 12:52:03;;;;;;;;;;;20.30;99.90;;;;;;1896920;74;20177;-74
2021/08/04 12:54:32;;;;;;;;;;;20.10;99.90;;;;;;1882867;74;20147;-75
2021/08/04 12:56:59;;;;;;;;;;;20.10;99.90;;;;;;1860258;75;20256;-73
2021/08/04 12:59:42;;;;;;;;;;;20.00;99.90;;;;;;1907031;74;20181;-74
2021/08/04 13:02:10;;;;;;;;;;;20.20;99.90;;;;;;1903315;74;20890;-73
2021/08/04 13:04:38;;;;;;;;;;;20.40;99.90;;;;;;1905158;74;20122;-74
2021/08/04 13:07:08;;;;;;;;;;;20.50;99.90;;;;;;1903534;75;20211;-74
2021/08/04 13:09:40;;;;;;;;;;;20.70;99.90;;;;;;1894934;74;20194;-73
2021/08/04 13:12:16;;;;;;;;;;;20.70;99.90;;;;;;1902068;74;20158;-73
2021/08/04 13:14:57;;;;;;;;;;;20.70;99.90;;;;;;1889842;74;20126;-74
2021/08/04 13:17:24;;;;;;;;;;;20.70;99.90;;;;;;1898688;74;20179;-73
2021/08/04 13:20:04;;;;;;;;;;;20.60;99.90;;;;;;1861741;77;20108;-73
2021/08/04 13:22:49;;;;;;;;;;;20.40;99.90;;;;;;1896690;74;20121;-74
2021/08/04 13:25:16;;;;;;;;;;;20.60;99.90;;;;;;1892297;74;20371;-73
2021/08/04 13:27:44;;;;;;;;;;;20.70;99.90;;;;;;1891633;74;20137;-73
2021/08/04 13:30:15;;;;;;;;;;;20.50;99.90;;;;;;1894180;74;20537;-73
2021/08/04 13:32:42;;;;;;;;;;;20.60;99.90;;;;;;1903826;74;20201;-74
2021/08/04 13:35:09;;;;;;;;;;;20.70;99.90;;;;;;1899326;74;20195;-74
2021/08/04 13:37:36;;;;;;;;;;;20.60;99.90;;;;;;1909145;74;20207;-74
2021/08/04 13:40:03;;;;;;;;;;;20.70;99.90;;;;;;1900699;74;20232;-73
2021/08/04 13:42:34;;;;;;;;;;;20.90;99.90;;;;;;1906882;74;20170;-74
2021/08/04 13:45:00;;;;;;;;;;;21.00;99.90;;;;;;1902334;74;20126;-73
2021/08/04 13:47:27;;;;;;;;;;;21.10;99.90;;;;;;1906503;74;20192;-73
2021/08/04 13:50:01;;;;;;;;;;;21.20;99.90;;;;;;1884436;75;20193;-73
2021/08/04 13:52:23;;;;;;;;;;;21.20;99.90;;;;;;1905661;74;20112;-74
2021/08/04 13:54:49;;;;;;;;;;;21.40;99.90;;;;;;1895768;74;20156;-72
2021/08/04 13:57:16;;;;;;;;;;;21.40;99.90;;;;;;1906900;74;20427;-74
2021/08/04 13:59:43;;;;;;;;;;;21.40;99.90;;;;;;1899640;74;20197;-74
2021/08/04 14:02:10;;;;;;;;;;;21.50;99.90;;;;;;1895553;74;20488;-72
2021/08/04 14:04:38;;;;;;;;;;;21.60;99.90;;;;;;1896371;74;20192;-74
2021/08/04 14:07:05;;;;;;;;;;;21.70;99.90;;;;;;1900401;74;20395;-73
2021/08/04 14:09:32;;;;;;;;;;;21.70;99.90;;;;;;1906382;74;20306;-73
2021/08/04 14:11:59;;;;;;;;;;;21.70;99.90;;;;;;1881767;74;20149;-73
2021/08/04 14:14:25;;;;;;;;;;;21.90;99.90;;;;;;1893100;75;20497;-73
2021/08/04 14:16:52;;;;;;;;;;;22.00;99.90;;;;;;1886436;75;20219;-73
2021/08/04 14:19:19;;;;;;;;;;;22.00;99.90;;;;;;1902299;75;20192;-74
2021/08/04 14:21:46;;;;;;;;;;;22.20;99.90;;;;;;1900871;75;20169;-73
2021/08/04 14:24:13;;;;;;;;;;;22.30;99.90;;;;;;1864337;75;20179;-73